EGPK/PIK METAR and TAF weather

Enter ICAO airport designator
Station Type Date Time Source
EGPK METAR 2020/09/22 01:50 UTC NOAA

EGPK 220150Z 17005KT 9999 BKN031 12/10 Q1010


Station Type Date Time Source
EGPK Decoded METAR 2020/09/22 01:50 UTC NOAA

Prestwick Airport, United Kingdom (EGPK) 55-30N 004-35W 0M
Sep 21, 2020 - 09:50 PM EDT / 2020.09.22 0150 UTC
Wind: from the S (170 degrees) at 6 MPH (5 KT):0
Visibility: greater than 7 mile(s):0
Sky conditions: mostly cloudy
Temperature: 53 F (12 C)
Dew Point: 50 F (10 C)
Relative Humidity: 87%
Pressure (altimeter): 29.83 in. Hg (1010 hPa)
ob: EGPK 220150Z 17005KT 9999 BKN031 12/10 Q1010
cycle: 2

Station Type Date Time Source
EGPK TAF 2020/09/21 18:06 UTC NOAA

TAF EGPK 211657Z 2118/2218 21009KT 9999 SCT025
TEMPO 2200/2214 BKN014 PROB30
TEMPO 2207/2211 8000 -RA
TEMPO 2209/2218 21018G28KT
TEMPO 2217/2218 8000 RA BKN012

Example: see airport list